sensor_id;sensor_type;location;lat;lon;timestamp;P1;durP1;ratioP1;P2;durP2;ratioP2
29330;SDS011;16331;52.528;13.342;2023-07-28T00:00:19;4.40;;;2.63;;
29330;SDS011;16331;52.528;13.342;2023-07-28T00:02:46;3.95;;;1.88;;
29330;SDS011;16331;52.528;13.342;2023-07-28T00:05:17;4.05;;;2.38;;
29330;SDS011;16331;52.528;13.342;2023-07-28T00:07:45;3.00;;;1.77;;
29330;SDS011;16331;52.528;13.342;2023-07-28T00:10:11;3.15;;;2.25;;
29330;SDS011;16331;52.528;13.342;2023-07-28T00:12:38;3.63;;;2.25;;
29330;SDS011;16331;52.528;13.342;2023-07-28T00:15:07;11.68;;;5.10;;
29330;SDS011;16331;52.528;13.342;2023-07-28T00:17:37;11.38;;;5.95;;
29330;SDS011;16331;52.528;13.342;2023-07-28T00:20:07;4.05;;;3.08;;
29330;SDS011;16331;52.528;13.342;2023-07-28T00:22:34;7.10;;;4.15;;
29330;SDS011;16331;52.528;13.342;2023-07-28T00:25:01;7.28;;;2.70;;
29330;SDS011;16331;52.528;13.342;2023-07-28T00:27:27;3.88;;;2.97;;
29330;SDS011;16331;52.528;13.342;2023-07-28T00:29:54;3.95;;;2.80;;
29330;SDS011;16331;52.528;13.342;2023-07-28T00:32:35;6.35;;;3.22;;
29330;SDS011;16331;52.528;13.342;2023-07-28T00:35:02;4.38;;;3.60;;
29330;SDS011;16331;52.528;13.342;2023-07-28T00:37:29;6.53;;;3.80;;
29330;SDS011;16331;52.528;13.342;2023-07-28T00:39:58;5.50;;;3.67;;
29330;SDS011;16331;52.528;13.342;2023-07-28T00:42:29;6.60;;;3.88;;
29330;SDS011;16331;52.528;13.342;2023-07-28T00:44:55;6.57;;;4.15;;
29330;SDS011;16331;52.528;13.342;2023-07-28T00:47:21;4.70;;;3.42;;
29330;SDS011;16331;52.528;13.342;2023-07-28T00:49:49;6.57;;;3.90;;
29330;SDS011;16331;52.528;13.342;2023-07-28T00:52:17;5.22;;;3.50;;
29330;SDS011;16331;52.528;13.342;2023-07-28T00:54:43;9.57;;;3.33;;
29330;SDS011;16331;52.528;13.342;2023-07-28T00:57:09;6.32;;;3.40;;
29330;SDS011;16331;52.528;13.342;2023-07-28T00:59:36;6.50;;;3.38;;
29330;SDS011;16331;52.528;13.342;2023-07-28T01:02:05;4.03;;;3.03;;
29330;SDS011;16331;52.528;13.342;2023-07-28T01:04:34;5.00;;;3.25;;
29330;SDS011;16331;52.528;13.342;2023-07-28T01:07:02;3.83;;;2.88;;
29330;SDS011;16331;52.528;13.342;2023-07-28T01:09:45;3.10;;;2.40;;
29330;SDS011;16331;52.528;13.342;2023-07-28T01:12:18;4.22;;;3.08;;
29330;SDS011;16331;52.528;13.342;2023-07-28T01:14:51;4.80;;;3.05;;
29330;SDS011;16331;52.528;13.342;2023-07-28T01:17:29;7.15;;;2.58;;
29330;SDS011;16331;52.528;13.342;2023-07-28T01:19:55;4.80;;;2.78;;
29330;SDS011;16331;52.528;13.342;2023-07-28T01:23:02;3.92;;;2.50;;
29330;SDS011;16331;52.528;13.342;2023-07-28T01:28:32;2.70;;;2.40;;
29330;SDS011;16331;52.528;13.342;2023-07-28T01:31:10;6.05;;;3.40;;
29330;SDS011;16331;52.528;13.342;2023-07-28T01:33:36;3.55;;;2.72;;
29330;SDS011;16331;52.528;13.342;2023-07-28T01:36:03;5.95;;;2.67;;
29330;SDS011;16331;52.528;13.342;2023-07-28T01:38:31;11.63;;;2.90;;
29330;SDS011;16331;52.528;13.342;2023-07-28T01:40:58;8.25;;;2.88;;
29330;SDS011;16331;52.528;13.342;2023-07-28T01:43:25;4.82;;;2.65;;
29330;SDS011;16331;52.528;13.342;2023-07-28T01:45:56;5.57;;;2.85;;
29330;SDS011;16331;52.528;13.342;2023-07-28T01:48:28;6.90;;;3.58;;
29330;SDS011;16331;52.528;13.342;2023-07-28T01:50:54;8.07;;;3.22;;
29330;SDS011;16331;52.528;13.342;2023-07-28T01:53:22;3.80;;;2.30;;
29330;SDS011;16331;52.528;13.342;2023-07-28T01:55:48;6.05;;;2.63;;
29330;SDS011;16331;52.528;13.342;2023-07-28T01:58:14;7.15;;;3.10;;
29330;SDS011;16331;52.528;13.342;2023-07-28T02:00:41;8.25;;;4.13;;
29330;SDS011;16331;52.528;13.342;2023-07-28T02:03:07;5.70;;;3.22;;
29330;SDS011;16331;52.528;13.342;2023-07-28T02:05:36;6.95;;;3.33;;
29330;SDS011;16331;52.528;13.342;2023-07-28T02:08:02;8.63;;;3.50;;
29330;SDS011;16331;52.528;13.342;2023-07-28T02:10:31;6.78;;;3.70;;
29330;SDS011;16331;52.528;13.342;2023-07-28T02:13:00;6.55;;;4.05;;
29330;SDS011;16331;52.528;13.342;2023-07-28T02:15:26;6.07;;;3.65;;
29330;SDS011;16331;52.528;13.342;2023-07-28T02:17:52;9.93;;;3.90;;
29330;SDS011;16331;52.528;13.342;2023-07-28T02:20:21;8.40;;;3.55;;
29330;SDS011;16331;52.528;13.342;2023-07-28T02:22:48;9.07;;;4.65;;
29330;SDS011;16331;52.528;13.342;2023-07-28T02:25:14;7.55;;;4.47;;
29330;SDS011;16331;52.528;13.342;2023-07-28T02:27:40;11.25;;;4.60;;
29330;SDS011;16331;52.528;13.342;2023-07-28T02:30:06;7.43;;;3.92;;
29330;SDS011;16331;52.528;13.342;2023-07-28T02:32:33;6.60;;;3.90;;
29330;SDS011;16331;52.528;13.342;2023-07-28T02:35:03;10.48;;;5.18;;
29330;SDS011;16331;52.528;13.342;2023-07-28T02:37:32;8.73;;;4.10;;
29330;SDS011;16331;52.528;13.342;2023-07-28T02:39:58;8.75;;;4.30;;
29330;SDS011;16331;52.528;13.342;2023-07-28T02:42:24;8.10;;;4.45;;
29330;SDS011;16331;52.528;13.342;2023-07-28T02:44:51;9.45;;;4.05;;
29330;SDS011;16331;52.528;13.342;2023-07-28T02:47:17;12.40;;;5.03;;
29330;SDS011;16331;52.528;13.342;2023-07-28T02:49:59;6.38;;;4.40;;
29330;SDS011;16331;52.528;13.342;2023-07-28T02:52:25;11.23;;;4.70;;
29330;SDS011;16331;52.528;13.342;2023-07-28T02:54:55;8.45;;;4.65;;
29330;SDS011;16331;52.528;13.342;2023-07-28T02:57:21;12.60;;;4.95;;
29330;SDS011;16331;52.528;13.342;2023-07-28T02:59:48;14.13;;;5.00;;
29330;SDS011;16331;52.528;13.342;2023-07-28T03:02:14;10.57;;;5.28;;
29330;SDS011;16331;52.528;13.342;2023-07-28T03:04:40;11.73;;;5.65;;
29330;SDS011;16331;52.528;13.342;2023-07-28T03:07:07;9.75;;;5.68;;
29330;SDS011;16331;52.528;13.342;2023-07-28T03:09:33;8.52;;;5.15;;
29330;SDS011;16331;52.528;13.342;2023-07-28T03:12:02;14.32;;;5.22;;
29330;SDS011;16331;52.528;13.342;2023-07-28T03:14:30;10.20;;;5.50;;
29330;SDS011;16331;52.528;13.342;2023-07-28T03:16:57;10.35;;;5.75;;
29330;SDS011;16331;52.528;13.342;2023-07-28T03:19:25;13.15;;;6.03;;
29330;SDS011;16331;52.528;13.342;2023-07-28T03:21:54;9.98;;;5.38;;
29330;SDS011;16331;52.528;13.342;2023-07-28T03:24:20;8.88;;;4.80;;
29330;SDS011;16331;52.528;13.342;2023-07-28T03:26:46;9.82;;;5.32;;
29330;SDS011;16331;52.528;13.342;2023-07-28T03:29:12;10.70;;;5.07;;
29330;SDS011;16331;52.528;13.342;2023-07-28T03:31:39;9.35;;;5.10;;
29330;SDS011;16331;52.528;13.342;2023-07-28T03:34:05;12.15;;;5.53;;
29330;SDS011;16331;52.528;13.342;2023-07-28T03:36:37;11.05;;;5.75;;
29330;SDS011;16331;52.528;13.342;2023-07-28T03:39:03;8.27;;;5.10;;
29330;SDS011;16331;52.528;13.342;2023-07-28T03:41:33;9.35;;;5.28;;
29330;SDS011;16331;52.528;13.342;2023-07-28T03:44:01;11.63;;;5.82;;
29330;SDS011;16331;52.528;13.342;2023-07-28T03:46:31;13.15;;;6.32;;
29330;SDS011;16331;52.528;13.342;2023-07-28T03:48:59;11.20;;;5.38;;
29330;SDS011;16331;52.528;13.342;2023-07-28T03:51:25;10.15;;;5.78;;
29330;SDS011;16331;52.528;13.342;2023-07-28T03:53:53;10.30;;;5.47;;
29330;SDS011;16331;52.528;13.342;2023-07-28T03:56:19;38.60;;;8.98;;
29330;SDS011;16331;52.528;13.342;2023-07-28T03:58:48;12.73;;;5.97;;
29330;SDS011;16331;52.528;13.342;2023-07-28T04:01:14;12.77;;;6.18;;
29330;SDS011;16331;52.528;13.342;2023-07-28T04:03:47;12.10;;;5.53;;
29330;SDS011;16331;52.528;13.342;2023-07-28T04:06:14;9.23;;;5.47;;
29330;SDS011;16331;52.528;13.342;2023-07-28T04:08:42;9.88;;;5.70;;
29330;SDS011;16331;52.528;13.342;2023-07-28T04:11:10;10.57;;;6.07;;
29330;SDS011;16331;52.528;13.342;2023-07-28T04:13:36;11.23;;;6.18;;
29330;SDS011;16331;52.528;13.342;2023-07-28T04:16:03;14.40;;;5.80;;
29330;SDS011;16331;52.528;13.342;2023-07-28T04:18:33;10.73;;;6.38;;
29330;SDS011;16331;52.528;13.342;2023-07-28T04:20:59;12.13;;;6.47;;
29330;SDS011;16331;52.528;13.342;2023-07-28T04:23:30;11.07;;;5.30;;
29330;SDS011;16331;52.528;13.342;2023-07-28T04:25:56;10.45;;;5.60;;
29330;SDS011;16331;52.528;13.342;2023-07-28T04:28:25;13.50;;;6.43;;
29330;SDS011;16331;52.528;13.342;2023-07-28T04:30:51;9.18;;;6.25;;
29330;SDS011;16331;52.528;13.342;2023-07-28T04:33:17;15.85;;;6.80;;
29330;SDS011;16331;52.528;13.342;2023-07-28T04:35:45;11.20;;;6.72;;
29330;SDS011;16331;52.528;13.342;2023-07-28T04:38:12;14.10;;;6.78;;
29330;SDS011;16331;52.528;13.342;2023-07-28T04:40:38;12.65;;;6.32;;
29330;SDS011;16331;52.528;13.342;2023-07-28T04:43:10;11.05;;;6.75;;
29330;SDS011;16331;52.528;13.342;2023-07-28T04:45:36;9.90;;;6.03;;
29330;SDS011;16331;52.528;13.342;2023-07-28T04:48:02;12.13;;;6.47;;
29330;SDS011;16331;52.528;13.342;2023-07-28T04:50:29;10.30;;;6.15;;
29330;SDS011;16331;52.528;13.342;2023-07-28T04:52:56;11.68;;;6.53;;
29330;SDS011;16331;52.528;13.342;2023-07-28T04:55:22;13.52;;;6.70;;
29330;SDS011;16331;52.528;13.342;2023-07-28T04:57:50;11.50;;;7.15;;
29330;SDS011;16331;52.528;13.342;2023-07-28T05:00:16;11.82;;;7.15;;
29330;SDS011;16331;52.528;13.342;2023-07-28T05:02:42;12.02;;;6.88;;
29330;SDS011;16331;52.528;13.342;2023-07-28T05:05:08;13.50;;;6.88;;
29330;SDS011;16331;52.528;13.342;2023-07-28T05:07:35;12.38;;;6.68;;
29330;SDS011;16331;52.528;13.342;2023-07-28T05:10:05;9.98;;;6.28;;
29330;SDS011;16331;52.528;13.342;2023-07-28T05:12:35;9.65;;;6.30;;
29330;SDS011;16331;52.528;13.342;2023-07-28T05:15:01;13.43;;;6.45;;
29330;SDS011;16331;52.528;13.342;2023-07-28T05:17:37;13.27;;;7.97;;
29330;SDS011;16331;52.528;13.342;2023-07-28T05:20:03;11.38;;;6.43;;
29330;SDS011;16331;52.528;13.342;2023-07-28T05:22:31;11.77;;;6.53;;
29330;SDS011;16331;52.528;13.342;2023-07-28T05:25:09;10.88;;;6.75;;
29330;SDS011;16331;52.528;13.342;2023-07-28T05:27:35;10.05;;;6.40;;
29330;SDS011;16331;52.528;13.342;2023-07-28T05:30:02;10.43;;;6.82;;
29330;SDS011;16331;52.528;13.342;2023-07-28T05:32:29;10.90;;;6.20;;
29330;SDS011;16331;52.528;13.342;2023-07-28T05:34:56;9.68;;;5.63;;
29330;SDS011;16331;52.528;13.342;2023-07-28T05:37:29;9.60;;;5.82;;
29330;SDS011;16331;52.528;13.342;2023-07-28T05:39:55;10.05;;;6.28;;
29330;SDS011;16331;52.528;13.342;2023-07-28T05:42:22;8.75;;;5.65;;
29330;SDS011;16331;52.528;13.342;2023-07-28T05:44:55;9.40;;;5.88;;
29330;SDS011;16331;52.528;13.342;2023-07-28T05:47:21;11.50;;;6.30;;
29330;SDS011;16331;52.528;13.342;2023-07-28T05:49:49;8.23;;;5.55;;
29330;SDS011;16331;52.528;13.342;2023-07-28T05:52:16;8.23;;;4.68;;
29330;SDS011;16331;52.528;13.342;2023-07-28T05:54:47;11.15;;;6.47;;
29330;SDS011;16331;52.528;13.342;2023-07-28T05:57:18;9.00;;;5.85;;
29330;SDS011;16331;52.528;13.342;2023-07-28T05:59:48;12.07;;;6.28;;
29330;SDS011;16331;52.528;13.342;2023-07-28T06:02:20;9.15;;;5.68;;
29330;SDS011;16331;52.528;13.342;2023-07-28T06:04:52;8.68;;;5.55;;
29330;SDS011;16331;52.528;13.342;2023-07-28T06:07:20;8.68;;;5.53;;
29330;SDS011;16331;52.528;13.342;2023-07-28T06:09:46;9.77;;;5.30;;
29330;SDS011;16331;52.528;13.342;2023-07-28T06:12:12;9.55;;;5.38;;
29330;SDS011;16331;52.528;13.342;2023-07-28T06:14:43;8.18;;;5.40;;
29330;SDS011;16331;52.528;13.342;2023-07-28T06:17:09;9.43;;;4.97;;
29330;SDS011;16331;52.528;13.342;2023-07-28T06:19:36;7.35;;;4.88;;
29330;SDS011;16331;52.528;13.342;2023-07-28T06:22:02;6.70;;;4.68;;
29330;SDS011;16331;52.528;13.342;2023-07-28T06:24:29;8.63;;;5.55;;
29330;SDS011;16331;52.528;13.342;2023-07-28T06:26:56;8.50;;;5.35;;
29330;SDS011;16331;52.528;13.342;2023-07-28T06:29:22;7.43;;;5.00;;
29330;SDS011;16331;52.528;13.342;2023-07-28T06:31:48;8.18;;;5.05;;
29330;SDS011;16331;52.528;13.342;2023-07-28T06:34:14;8.00;;;5.03;;
29330;SDS011;16331;52.528;13.342;2023-07-28T06:36:40;7.95;;;5.38;;
29330;SDS011;16331;52.528;13.342;2023-07-28T06:39:07;8.98;;;4.88;;
29330;SDS011;16331;52.528;13.342;2023-07-28T06:41:33;6.60;;;4.85;;
29330;SDS011;16331;52.528;13.342;2023-07-28T06:43:59;8.40;;;5.32;;
29330;SDS011;16331;52.528;13.342;2023-07-28T06:46:27;6.97;;;4.75;;
29330;SDS011;16331;52.528;13.342;2023-07-28T06:48:53;11.32;;;5.20;;
29330;SDS011;16331;52.528;13.342;2023-07-28T06:51:22;8.68;;;4.72;;
29330;SDS011;16331;52.528;13.342;2023-07-28T06:53:49;9.20;;;4.60;;
29330;SDS011;16331;52.528;13.342;2023-07-28T06:56:16;10.63;;;4.90;;
29330;SDS011;16331;52.528;13.342;2023-07-28T06:58:43;10.55;;;4.60;;
29330;SDS011;16331;52.528;13.342;2023-07-28T07:01:09;8.10;;;5.22;;
29330;SDS011;16331;52.528;13.342;2023-07-28T07:03:36;7.93;;;4.65;;
29330;SDS011;16331;52.528;13.342;2023-07-28T07:06:04;6.95;;;4.78;;
29330;SDS011;16331;52.528;13.342;2023-07-28T07:08:30;7.80;;;4.28;;
29330;SDS011;16331;52.528;13.342;2023-07-28T07:10:57;5.50;;;3.60;;
29330;SDS011;16331;52.528;13.342;2023-07-28T07:13:24;10.52;;;3.60;;
29330;SDS011;16331;52.528;13.342;2023-07-28T07:15:50;5.40;;;3.40;;
29330;SDS011;16331;52.528;13.342;2023-07-28T07:18:16;4.57;;;2.83;;
29330;SDS011;16331;52.528;13.342;2023-07-28T07:20:42;3.63;;;2.92;;
29330;SDS011;16331;52.528;13.342;2023-07-28T07:23:14;6.53;;;3.33;;
29330;SDS011;16331;52.528;13.342;2023-07-28T07:25:40;7.25;;;3.80;;
29330;SDS011;16331;52.528;13.342;2023-07-28T07:28:06;4.70;;;2.85;;
29330;SDS011;16331;52.528;13.342;2023-07-28T07:30:34;3.10;;;2.47;;
29330;SDS011;16331;52.528;13.342;2023-07-28T07:33:05;4.18;;;2.15;;
29330;SDS011;16331;52.528;13.342;2023-07-28T07:35:35;8.07;;;4.90;;
29330;SDS011;16331;52.528;13.342;2023-07-28T07:38:03;3.35;;;2.35;;
29330;SDS011;16331;52.528;13.342;2023-07-28T07:40:33;2.67;;;1.90;;
29330;SDS011;16331;52.528;13.342;2023-07-28T07:43:00;2.33;;;1.77;;
29330;SDS011;16331;52.528;13.342;2023-07-28T07:45:28;4.10;;;2.08;;
29330;SDS011;16331;52.528;13.342;2023-07-28T07:47:56;2.72;;;1.90;;
29330;SDS011;16331;52.528;13.342;2023-07-28T07:50:22;3.80;;;1.83;;
29330;SDS011;16331;52.528;13.342;2023-07-28T07:52:49;1.63;;;1.38;;
29330;SDS011;16331;52.528;13.342;2023-07-28T07:55:15;2.88;;;1.80;;
29330;SDS011;16331;52.528;13.342;2023-07-28T07:57:41;4.03;;;1.50;;
29330;SDS011;16331;52.528;13.342;2023-07-28T08:00:14;1.88;;;1.30;;
29330;SDS011;16331;52.528;13.342;2023-07-28T08:02:45;3.10;;;1.02;;
29330;SDS011;16331;52.528;13.342;2023-07-28T08:05:12;2.17;;;1.33;;
29330;SDS011;16331;52.528;13.342;2023-07-28T08:07:39;1.67;;;1.05;;
29330;SDS011;16331;52.528;13.342;2023-07-28T08:10:12;1.90;;;1.02;;
29330;SDS011;16331;52.528;13.342;2023-07-28T08:12:38;1.88;;;1.10;;
29330;SDS011;16331;52.528;13.342;2023-07-28T08:15:07;2.53;;;1.23;;
29330;SDS011;16331;52.528;13.342;2023-07-28T08:17:41;1.20;;;1.10;;
29330;SDS011;16331;52.528;13.342;2023-07-28T08:20:12;1.75;;;1.08;;
29330;SDS011;16331;52.528;13.342;2023-07-28T08:22:48;1.40;;;0.85;;
29330;SDS011;16331;52.528;13.342;2023-07-28T08:25:16;4.65;;;1.40;;
29330;SDS011;16331;52.528;13.342;2023-07-28T08:27:42;5.53;;;1.23;;
29330;SDS011;16331;52.528;13.342;2023-07-28T08:30:10;0.80;;;0.75;;
29330;SDS011;16331;52.528;13.342;2023-07-28T08:32:40;1.30;;;1.10;;
29330;SDS011;16331;52.528;13.342;2023-07-28T08:35:20;2.15;;;1.00;;
29330;SDS011;16331;52.528;13.342;2023-07-28T08:37:47;1.33;;;1.17;;
29330;SDS011;16331;52.528;13.342;2023-07-28T08:40:14;1.40;;;1.10;;
29330;SDS011;16331;52.528;13.342;2023-07-28T08:42:42;1.27;;;1.10;;
29330;SDS011;16331;52.528;13.342;2023-07-28T08:45:11;2.20;;;1.25;;
29330;SDS011;16331;52.528;13.342;2023-07-28T08:47:39;2.25;;;1.15;;
29330;SDS011;16331;52.528;13.342;2023-07-28T08:50:07;2.70;;;1.10;;
29330;SDS011;16331;52.528;13.342;2023-07-28T08:52:34;3.75;;;1.23;;
29330;SDS011;16331;52.528;13.342;2023-07-28T08:55:01;1.70;;;0.90;;
29330;SDS011;16331;52.528;13.342;2023-07-28T08:57:31;1.00;;;0.90;;
29330;SDS011;16331;52.528;13.342;2023-07-28T09:00:10;2.00;;;0.85;;
29330;SDS011;16331;52.528;13.342;2023-07-28T09:02:41;0.95;;;0.85;;
29330;SDS011;16331;52.528;13.342;2023-07-28T09:05:08;3.67;;;2.30;;
29330;SDS011;16331;52.528;13.342;2023-07-28T09:07:45;1.30;;;1.00;;
29330;SDS011;16331;52.528;13.342;2023-07-28T09:10:14;2.30;;;0.82;;
29330;SDS011;16331;52.528;13.342;2023-07-28T09:12:59;1.60;;;0.98;;
29330;SDS011;16331;52.528;13.342;2023-07-28T09:15:32;0.70;;;0.70;;
29330;SDS011;16331;52.528;13.342;2023-07-28T09:18:00;1.55;;;1.10;;
29330;SDS011;16331;52.528;13.342;2023-07-28T09:20:33;1.42;;;1.15;;
29330;SDS011;16331;52.528;13.342;2023-07-28T09:23:01;2.63;;;1.45;;
29330;SDS011;16331;52.528;13.342;2023-07-28T09:25:28;1.85;;;1.10;;
29330;SDS011;16331;52.528;13.342;2023-07-28T09:28:15;4.15;;;1.60;;
29330;SDS011;16331;52.528;13.342;2023-07-28T09:30:47;2.88;;;1.40;;
29330;SDS011;16331;52.528;13.342;2023-07-28T09:33:28;2.80;;;1.10;;
29330;SDS011;16331;52.528;13.342;2023-07-28T09:35:55;8.63;;;1.55;;
29330;SDS011;16331;52.528;13.342;2023-07-28T09:38:22;3.13;;;1.40;;
29330;SDS011;16331;52.528;13.342;2023-07-28T09:40:52;1.80;;;1.25;;
29330;SDS011;16331;52.528;13.342;2023-07-28T09:43:21;1.73;;;1.23;;
29330;SDS011;16331;52.528;13.342;2023-07-28T09:45:48;3.20;;;1.40;;
29330;SDS011;16331;52.528;13.342;2023-07-28T09:48:15;1.20;;;1.10;;
29330;SDS011;16331;52.528;13.342;2023-07-28T09:50:43;1.17;;;1.08;;
29330;SDS011;16331;52.528;13.342;2023-07-28T09:53:10;1.20;;;1.10;;
29330;SDS011;16331;52.528;13.342;2023-07-28T09:55:56;3.28;;;1.20;;
29330;SDS011;16331;52.528;13.342;2023-07-28T09:58:24;1.60;;;1.38;;
29330;SDS011;16331;52.528;13.342;2023-07-28T10:00:56;1.73;;;1.25;;
29330;SDS011;16331;52.528;13.342;2023-07-28T10:03:24;1.88;;;1.58;;
29330;SDS011;16331;52.528;13.342;2023-07-28T10:05:51;5.40;;;1.90;;
29330;SDS011;16331;52.528;13.342;2023-07-28T10:08:20;3.03;;;1.92;;
29330;SDS011;16331;52.528;13.342;2023-07-28T10:10:49;2.92;;;1.83;;
29330;SDS011;16331;52.528;13.342;2023-07-28T10:13:20;3.15;;;2.33;;
29330;SDS011;16331;52.528;13.342;2023-07-28T10:15:49;2.50;;;2.15;;
29330;SDS011;16331;52.528;13.342;2023-07-28T10:18:18;2.45;;;1.88;;
29330;SDS011;16331;52.528;13.342;2023-07-28T10:20:46;2.47;;;2.00;;
29330;SDS011;16331;52.528;13.342;2023-07-28T10:23:17;6.25;;;2.22;;
29330;SDS011;16331;52.528;13.342;2023-07-28T10:25:47;7.15;;;2.10;;
29330;SDS011;16331;52.528;13.342;2023-07-28T10:28:31;3.35;;;2.15;;
29330;SDS011;16331;52.528;13.342;2023-07-28T10:31:07;3.60;;;2.25;;
29330;SDS011;16331;52.528;13.342;2023-07-28T10:33:45;2.88;;;1.98;;
29330;SDS011;16331;52.528;13.342;2023-07-28T10:36:13;3.08;;;2.08;;
29330;SDS011;16331;52.528;13.342;2023-07-28T10:38:46;4.53;;;1.80;;
29330;SDS011;16331;52.528;13.342;2023-07-28T10:41:36;4.07;;;2.30;;
29330;SDS011;16331;52.528;13.342;2023-07-28T10:44:04;4.00;;;2.35;;
29330;SDS011;16331;52.528;13.342;2023-07-28T10:46:34;4.03;;;2.70;;
29330;SDS011;16331;52.528;13.342;2023-07-28T10:49:04;4.10;;;2.33;;
29330;SDS011;16331;52.528;13.342;2023-07-28T10:51:31;8.13;;;3.45;;
29330;SDS011;16331;52.528;13.342;2023-07-28T10:53:58;6.55;;;3.05;;
29330;SDS011;16331;52.528;13.342;2023-07-28T10:56:28;15.15;;;2.88;;
29330;SDS011;16331;52.528;13.342;2023-07-28T10:59:02;5.55;;;2.75;;
29330;SDS011;16331;52.528;13.342;2023-07-28T11:01:34;10.27;;;3.00;;
29330;SDS011;16331;52.528;13.342;2023-07-28T11:04:11;8.32;;;2.10;;
29330;SDS011;16331;52.528;13.342;2023-07-28T11:06:43;3.10;;;2.08;;
29330;SDS011;16331;52.528;13.342;2023-07-28T11:09:10;6.05;;;2.20;;
29330;SDS011;16331;52.528;13.342;2023-07-28T11:11:39;3.22;;;2.30;;
29330;SDS011;16331;52.528;13.342;2023-07-28T11:14:06;9.90;;;2.00;;
29330;SDS011;16331;52.528;13.342;2023-07-28T11:16:38;4.65;;;2.50;;
29330;SDS011;16331;52.528;13.342;2023-07-28T11:19:09;14.25;;;2.65;;
29330;SDS011;16331;52.528;13.342;2023-07-28T11:21:37;3.67;;;2.40;;
29330;SDS011;16331;52.528;13.342;2023-07-28T11:24:04;9.55;;;2.78;;
29330;SDS011;16331;52.528;13.342;2023-07-28T11:26:35;5.23;;;1.93;;
29330;SDS011;16331;52.528;13.342;2023-07-28T11:29:04;3.55;;;2.58;;
29330;SDS011;16331;52.528;13.342;2023-07-28T11:31:31;5.10;;;2.45;;
29330;SDS011;16331;52.528;13.342;2023-07-28T11:33:58;6.55;;;3.20;;
29330;SDS011;16331;52.528;13.342;2023-07-28T11:36:28;3.60;;;2.78;;
29330;SDS011;16331;52.528;13.342;2023-07-28T11:38:59;4.05;;;2.80;;
29330;SDS011;16331;52.528;13.342;2023-07-28T11:41:30;7.40;;;2.80;;
29330;SDS011;16331;52.528;13.342;2023-07-28T11:43:58;6.22;;;2.83;;
29330;SDS011;16331;52.528;13.342;2023-07-28T11:46:36;4.15;;;2.58;;
29330;SDS011;16331;52.528;13.342;2023-07-28T11:49:11;4.90;;;3.05;;
29330;SDS011;16331;52.528;13.342;2023-07-28T11:51:51;4.75;;;3.05;;
29330;SDS011;16331;52.528;13.342;2023-07-28T11:54:20;3.35;;;2.30;;
29330;SDS011;16331;52.528;13.342;2023-07-28T11:56:49;2.72;;;1.95;;
29330;SDS011;16331;52.528;13.342;2023-07-28T11:59:16;8.43;;;2.63;;
29330;SDS011;16331;52.528;13.342;2023-07-28T12:01:56;3.78;;;2.15;;
29330;SDS011;16331;52.528;13.342;2023-07-28T12:04:24;2.45;;;1.70;;
29330;SDS011;16331;52.528;13.342;2023-07-28T12:07:12;7.05;;;2.28;;
29330;SDS011;16331;52.528;13.342;2023-07-28T12:09:50;3.58;;;2.10;;
29330;SDS011;16331;52.528;13.342;2023-07-28T12:12:18;3.08;;;2.13;;
29330;SDS011;16331;52.528;13.342;2023-07-28T12:14:53;3.40;;;2.00;;
29330;SDS011;16331;52.528;13.342;2023-07-28T12:17:21;1.85;;;1.35;;
29330;SDS011;16331;52.528;13.342;2023-07-28T12:20:01;4.57;;;2.00;;
29330;SDS011;16331;52.528;13.342;2023-07-28T12:22:42;4.13;;;1.88;;
29330;SDS011;16331;52.528;13.342;2023-07-28T12:25:10;1.85;;;1.42;;
29330;SDS011;16331;52.528;13.342;2023-07-28T12:27:37;1.58;;;1.38;;
29330;SDS011;16331;52.528;13.342;2023-07-28T12:30:03;2.50;;;1.67;;
29330;SDS011;16331;52.528;13.342;2023-07-28T12:32:34;6.35;;;1.75;;
29330;SDS011;16331;52.528;13.342;2023-07-28T12:35:01;2.72;;;1.60;;
29330;SDS011;16331;52.528;13.342;2023-07-28T12:37:27;2.15;;;1.48;;
29330;SDS011;16331;52.528;13.342;2023-07-28T12:39:52;1.70;;;1.60;;
29330;SDS011;16331;52.528;13.342;2023-07-28T12:42:18;2.47;;;1.60;;
29330;SDS011;16331;52.528;13.342;2023-07-28T12:44:46;2.50;;;1.98;;
29330;SDS011;16331;52.528;13.342;2023-07-28T12:47:12;3.45;;;1.88;;
29330;SDS011;16331;52.528;13.342;2023-07-28T12:49:37;1.88;;;1.55;;
29330;SDS011;16331;52.528;13.342;2023-07-28T12:52:05;2.10;;;1.75;;
29330;SDS011;16331;52.528;13.342;2023-07-28T12:54:34;1.95;;;1.60;;
29330;SDS011;16331;52.528;13.342;2023-07-28T12:57:00;2.33;;;1.70;;
29330;SDS011;16331;52.528;13.342;2023-07-28T12:59:27;3.05;;;1.30;;
29330;SDS011;16331;52.528;13.342;2023-07-28T13:01:54;2.58;;;1.40;;
29330;SDS011;16331;52.528;13.342;2023-07-28T13:04:21;2.30;;;1.52;;
29330;SDS011;16331;52.528;13.342;2023-07-28T13:06:48;2.15;;;1.58;;
29330;SDS011;16331;52.528;13.342;2023-07-28T13:09:14;2.05;;;1.70;;
29330;SDS011;16331;52.528;13.342;2023-07-28T13:11:41;2.50;;;1.77;;
29330;SDS011;16331;52.528;13.342;2023-07-28T13:14:07;2.08;;;1.80;;
29330;SDS011;16331;52.528;13.342;2023-07-28T13:16:32;2.30;;;1.50;;
29330;SDS011;16331;52.528;13.342;2023-07-28T13:18:58;3.58;;;1.90;;
29330;SDS011;16331;52.528;13.342;2023-07-28T13:21:28;2.47;;;1.80;;
29330;SDS011;16331;52.528;13.342;2023-07-28T13:23:54;2.13;;;1.65;;
29330;SDS011;16331;52.528;13.342;2023-07-28T13:26:20;4.45;;;1.90;;
29330;SDS011;16331;52.528;13.342;2023-07-28T13:28:46;4.32;;;1.48;;
29330;SDS011;16331;52.528;13.342;2023-07-28T13:31:13;1.85;;;1.55;;
29330;SDS011;16331;52.528;13.342;2023-07-28T13:33:43;2.50;;;1.73;;
29330;SDS011;16331;52.528;13.342;2023-07-28T13:36:10;2.25;;;1.65;;
29330;SDS011;16331;52.528;13.342;2023-07-28T13:38:38;2.90;;;2.00;;
29330;SDS011;16331;52.528;13.342;2023-07-28T13:41:06;3.20;;;2.38;;
29330;SDS011;16331;52.528;13.342;2023-07-28T13:43:32;12.95;;;8.95;;
29330;SDS011;16331;52.528;13.342;2023-07-28T13:46:04;17.65;;;11.25;;
29330;SDS011;16331;52.528;13.342;2023-07-28T13:48:30;3.95;;;3.28;;
29330;SDS011;16331;52.528;13.342;2023-07-28T13:50:57;7.57;;;2.47;;
29330;SDS011;16331;52.528;13.342;2023-07-28T13:53:23;4.00;;;2.28;;
29330;SDS011;16331;52.528;13.342;2023-07-28T13:55:51;1.83;;;1.63;;
29330;SDS011;16331;52.528;13.342;2023-07-28T13:58:17;3.33;;;1.83;;
29330;SDS011;16331;52.528;13.342;2023-07-28T14:00:49;2.92;;;1.55;;
29330;SDS011;16331;52.528;13.342;2023-07-28T14:03:16;2.22;;;1.60;;
29330;SDS011;16331;52.528;13.342;2023-07-28T14:05:42;3.40;;;2.20;;
29330;SDS011;16331;52.528;13.342;2023-07-28T14:08:09;3.58;;;2.30;;
29330;SDS011;16331;52.528;13.342;2023-07-28T14:10:36;4.68;;;2.20;;
29330;SDS011;16331;52.528;13.342;2023-07-28T14:13:03;4.88;;;2.15;;
29330;SDS011;16331;52.528;13.342;2023-07-28T14:15:30;3.45;;;2.10;;
29330;SDS011;16331;52.528;13.342;2023-07-28T14:17:58;2.33;;;1.83;;
29330;SDS011;16331;52.528;13.342;2023-07-28T14:20:24;2.50;;;1.67;;
29330;SDS011;16331;52.528;13.342;2023-07-28T14:22:50;2.65;;;1.52;;
29330;SDS011;16331;52.528;13.342;2023-07-28T14:25:17;1.83;;;1.55;;
29330;SDS011;16331;52.528;13.342;2023-07-28T14:27:43;1.83;;;1.15;;
29330;SDS011;16331;52.528;13.342;2023-07-28T14:30:09;1.90;;;1.45;;
29330;SDS011;16331;52.528;13.342;2023-07-28T14:32:36;0.80;;;0.80;;
29330;SDS011;16331;52.528;13.342;2023-07-28T14:35:02;0.85;;;0.80;;
29330;SDS011;16331;52.528;13.342;2023-07-28T14:37:29;1.67;;;1.10;;
29330;SDS011;16331;52.528;13.342;2023-07-28T14:39:54;1.40;;;1.10;;
29330;SDS011;16331;52.528;13.342;2023-07-28T14:42:20;1.80;;;1.20;;